Time;durP1;ratioP1;P1;durP2;ratioP2;P2;SDS_P1;SDS_P2;PMS_P1;PMS_P2;Temp;Humidity;BMP_temperature;BMP_pressure;BME280_temperature;BME280_humidity;BME280_pressure;Samples;Min_cycle;Max_cycle;Signal;HPM_P1;HPM_P2
2021/08/15 00:00:58;;;;;;;11.75;9.77;;;;;;;16.15;100.00;93376.19;2106573;28;20371;-91
2021/08/15 00:01:59;;;;;;;10.43;9.32;;;;;;;16.14;100.00;93374.69;2115926;28;20430;-90
2021/08/15 00:03:00;;;;;;;11.40;9.55;;;;;;;16.16;100.00;93368.88;2099176;28;20024;-91
2021/08/15 00:04:01;;;;;;;13.52;10.40;;;;;;;16.15;100.00;93372.75;2090876;28;20064;-91
2021/08/15 00:05:03;;;;;;;12.00;9.55;;;;;;;16.06;100.00;93368.81;2099075;28;20027;-90
2021/08/15 00:06:05;;;;;;;12.95;9.63;;;;;;;16.05;100.00;93374.66;2099128;28;20032;-91
2021/08/15 00:07:06;;;;;;;10.90;9.80;;;;;;;16.07;100.00;93373.03;2099132;28;20493;-92
2021/08/15 00:08:08;;;;;;;11.05;9.25;;;;;;;15.99;100.00;93373.75;2091116;28;20079;-91
2021/08/15 00:09:09;;;;;;;10.15;9.02;;;;;;;16.00;100.00;93367.91;2091003;28;20363;-90
2021/08/15 00:10:10;;;;;;;10.88;9.52;;;;;;;16.00;100.00;93365.22;2099109;28;20036;-90
2021/08/15 00:11:11;;;;;;;11.55;10.05;;;;;;;15.96;100.00;93361.91;2104364;28;20043;-91
2021/08/15 00:12:12;;;;;;;11.73;9.77;;;;;;;15.93;100.00;93365.47;2094882;28;20470;-91
2021/08/15 00:13:13;;;;;;;17.05;10.45;;;;;;;15.96;100.00;93364.59;2093454;28;20028;-91
2021/08/15 00:14:14;;;;;;;12.15;9.98;;;;;;;16.00;100.00;93356.38;2099016;28;20024;-91
2021/08/15 00:15:16;;;;;;;11.52;10.23;;;;;;;15.99;100.00;93361.03;2090684;28;20113;-90
2021/08/15 00:16:17;;;;;;;11.27;10.05;;;;;;;15.94;100.00;93364.31;2082715;28;20025;-90
2021/08/15 00:17:18;;;;;;;12.07;9.90;;;;;;;15.97;100.00;93355.31;2091085;28;20025;-90
2021/08/15 00:18:19;;;;;;;12.30;9.88;;;;;;;15.99;100.00;93363.72;2103706;28;20477;-91
2021/08/15 00:19:20;;;;;;;13.18;9.95;;;;;;;15.96;100.00;93358.47;2099186;28;20028;-90
2021/08/15 00:20:21;;;;;;;11.05;9.90;;;;;;;15.96;100.00;93358.47;2107533;27;20122;-91
2021/08/15 00:21:21;;;;;;;11.50;10.40;;;;;;;15.97;100.00;93355.31;2107390;28;20108;-90
2021/08/15 00:22:22;;;;;;;11.80;10.18;;;;;;;15.96;100.00;93356.50;2099066;28;20024;-91
2021/08/15 00:23:23;;;;;;;11.63;10.35;;;;;;;15.89;100.00;93351.38;2098899;28;20124;-90
2021/08/15 00:24:24;;;;;;;14.75;9.85;;;;;;;15.81;100.00;93358.25;2099130;28;20016;-90
2021/08/15 00:25:26;;;;;;;10.48;9.48;;;;;;;15.86;100.00;93361.13;2115517;28;20049;-92
2021/08/15 00:26:27;;;;;;;11.70;9.55;;;;;;;15.86;100.00;93357.69;2115580;28;20027;-90
2021/08/15 00:27:28;;;;;;;11.02;9.93;;;;;;;15.82;100.00;93351.66;2115092;28;20023;-90
2021/08/15 00:28:29;;;;;;;13.18;9.40;;;;;;;15.82;100.00;93354.38;2091050;28;20466;-91
2021/08/15 00:29:30;;;;;;;10.18;9.07;;;;;;;15.76;100.00;93350.72;2107234;28;20034;-91
2021/08/15 00:30:32;;;;;;;11.05;9.13;;;;;;;15.75;100.00;93351.94;2107372;28;20044;-90
2021/08/15 00:31:33;;;;;;;12.18;9.98;;;;;;;15.77;100.00;93347.59;2098930;28;20420;-90
2021/08/15 00:32:34;;;;;;;13.85;9.90;;;;;;;15.76;100.00;93350.72;2090718;28;20025;-90
2021/08/15 00:33:34;;;;;;;12.57;10.00;;;;;;;15.76;100.00;93356.91;2082481;28;20021;-91
2021/08/15 00:34:35;;;;;;;11.02;9.30;;;;;;;15.78;100.00;93346.41;2091756;28;20020;-91
2021/08/15 00:35:36;;;;;;;11.45;9.63;;;;;;;15.78;100.00;93351.06;2102375;28;20020;-91
2021/08/15 00:36:37;;;;;;;12.10;10.70;;;;;;;15.79;100.00;93342.50;2108002;28;20020;-90
2021/08/15 00:37:38;;;;;;;17.92;10.00;;;;;;;15.74;100.00;93343.09;2107274;28;20035;-91
2021/08/15 00:38:39;;;;;;;11.02;9.88;;;;;;;15.75;100.00;93349.22;2107307;28;20032;-91
2021/08/15 00:39:40;;;;;;;10.80;9.77;;;;;;;15.67;100.00;93338.00;2098967;28;20562;-91
2021/08/15 00:40:41;;;;;;;10.48;8.85;;;;;;;15.65;100.00;93342.31;2099047;28;20027;-91
2021/08/15 00:41:42;;;;;;;11.60;9.65;;;;;;;15.58;100.00;93346.75;2098929;28;20031;-92
2021/08/15 00:42:43;;;;;;;11.82;9.68;;;;;;;15.65;100.00;93345.75;2098952;28;20066;-91
2021/08/15 00:43:44;;;;;;;10.50;9.40;;;;;;;15.70;100.00;93341.72;2115911;28;20026;-91
2021/08/15 00:44:45;;;;;;;10.77;9.77;;;;;;;15.71;100.00;93346.66;2124149;27;20056;-92
2021/08/15 00:45:46;;;;;;;12.88;10.02;;;;;;;15.66;100.00;93341.09;2124187;27;20144;-92
2021/08/15 00:46:49;;;;;;;12.85;9.13;;;;;;;15.62;100.00;93339.25;2123045;27;20562;-92
2021/08/15 00:47:50;;;;;;;12.07;9.32;;;;;;;15.64;100.00;93340.78;2115904;27;20169;-92
2021/08/15 00:48:50;;;;;;;11.75;9.57;;;;;;;15.60;100.00;93343.59;2107105;28;20089;-92
2021/08/15 00:49:51;;;;;;;12.00;9.70;;;;;;;15.64;100.00;93340.78;2098845;28;20028;-92
2021/08/15 00:50:52;;;;;;;11.85;10.27;;;;;;;15.64;100.00;93338.09;2098895;28;20083;-92
2021/08/15 00:51:53;;;;;;;12.57;9.45;;;;;;;15.59;100.00;93336.72;2095812;28;20025;-91
2021/08/15 00:52:54;;;;;;;13.70;10.10;;;;;;;15.64;100.00;93346.16;2090418;28;20051;-91
2021/08/15 00:53:57;;;;;;;11.25;9.55;;;;;;;15.62;100.00;93341.97;2085748;28;20020;-91
2021/08/15 00:55:00;;;;;;;11.85;9.80;;;;;;;15.59;100.00;93342.84;2090795;28;20028;-91
2021/08/15 00:56:02;;;;;;;15.55;10.13;;;;;;;15.55;100.00;93333.41;2091108;28;20032;-91
2021/08/15 00:57:06;;;;;;;11.55;9.60;;;;;;;15.52;100.00;93340.41;2094879;28;20116;-92
2021/08/15 00:58:07;;;;;;;11.35;9.15;;;;;;;15.47;100.00;93338.31;2103898;28;20028;-91
2021/08/15 00:59:09;;;;;;;10.80;9.80;;;;;;;15.49;100.00;93332.47;2098987;28;20020;-91
2021/08/15 01:00:11;;;;;;;12.18;10.45;;;;;;;15.52;100.00;93334.28;2093450;28;20056;-92
2021/08/15 01:01:12;;;;;;;13.70;9.95;;;;;;;15.54;100.00;93332.66;2098846;28;20088;-91
2021/08/15 01:02:13;;;;;;;11.48;9.88;;;;;;;15.56;100.00;93330.25;2090540;28;20067;-92
2021/08/15 01:03:14;;;;;;;11.73;10.48;;;;;;;15.45;100.00;93335.31;2090402;28;20025;-91
2021/08/15 01:04:15;;;;;;;12.10;9.85;;;;;;;15.48;100.00;93331.72;2090632;28;20084;-92
2021/08/15 01:05:17;;;;;;;13.70;10.15;;;;;;;15.48;100.00;93334.41;2098754;28;20020;-90
2021/08/15 01:06:18;;;;;;;13.98;9.75;;;;;;;15.49;100.00;93327.81;2098728;28;20048;-92
2021/08/15 01:07:19;;;;;;;12.50;9.52;;;;;;;15.47;100.00;93327.53;2115274;28;20500;-92
2021/08/15 01:08:20;;;;;;;12.25;9.63;;;;;;;15.44;100.00;93327.66;2106961;28;20039;-92
2021/08/15 01:09:21;;;;;;;12.60;10.60;;;;;;;15.41;100.00;93328.53;2090522;28;20048;-91
2021/08/15 01:10:22;;;;;;;14.13;9.70;;;;;;;15.39;100.00;93333.63;2098689;28;20032;-91
2021/08/15 01:11:23;;;;;;;11.85;8.90;;;;;;;15.40;100.00;93335.84;2106941;28;20028;-92
2021/08/15 01:12:27;;;;;;;10.88;9.65;;;;;;;15.40;100.00;93325.09;2098576;28;20074;-91
2021/08/15 01:13:29;;;;;;;10.90;9.75;;;;;;;15.35;100.00;93322.97;2098878;28;20032;-90
2021/08/15 01:14:30;;;;;;;14.00;10.55;;;;;;;15.38;100.00;93324.03;2098979;28;20033;-90
2021/08/15 01:15:31;;;;;;;12.35;9.85;;;;;;;15.44;100.00;93312.22;2098579;28;20020;-92
2021/08/15 01:16:34;;;;;;;14.77;9.93;;;;;;;15.41;100.00;93321.22;2106975;28;20050;-91
2021/08/15 01:17:35;;;;;;;11.55;10.35;;;;;;;15.35;100.00;93318.31;2091138;28;20517;-92
2021/08/15 01:18:38;;;;;;;13.10;10.55;;;;;;;15.34;100.00;93316.81;2090260;28;20025;-91
2021/08/15 01:19:39;;;;;;;11.45;10.32;;;;;;;15.35;100.00;93314.88;2099018;28;20055;-91
2021/08/15 01:20:40;;;;;;;12.02;9.65;;;;;;;15.35;100.00;93321.03;2090436;28;20033;-91
2021/08/15 01:21:46;;;;;;;15.23;10.40;;;;;;;15.37;100.00;93315.22;2098831;28;20031;-90
2021/08/15 01:22:47;;;;;;;11.70;10.57;;;;;;;15.33;100.00;93315.34;2099462;28;20020;-91
2021/08/15 01:23:48;;;;;;;10.43;9.23;;;;;;;15.34;100.00;93316.09;2098579;28;20023;-92
2021/08/15 01:24:50;;;;;;;13.05;10.32;;;;;;;15.36;100.00;93316.38;2098509;28;20059;-89
2021/08/15 01:25:52;;;;;;;14.23;10.73;;;;;;;15.32;100.00;93313.06;2095923;28;20132;-92
2021/08/15 01:26:53;;;;;;;12.15;9.65;;;;;;;15.29;100.00;93309.31;2098863;28;20025;-91
2021/08/15 01:27:54;;;;;;;10.65;9.00;;;;;;;15.23;100.00;93308.41;2095497;28;20025;-91
2021/08/15 01:28:55;;;;;;;12.63;9.38;;;;;;;15.24;100.00;93306.47;2098469;28;20440;-91
2021/08/15 01:29:56;;;;;;;13.23;10.07;;;;;;;15.19;100.00;93313.16;2107008;28;20512;-91
2021/08/15 01:30:57;;;;;;;10.93;9.18;;;;;;;15.24;100.00;93309.16;2097203;28;20098;-90
2021/08/15 01:31:58;;;;;;;14.77;10.48;;;;;;;15.29;100.00;93309.31;2098573;28;20020;-91
2021/08/15 01:32:59;;;;;;;11.65;10.48;;;;;;;15.21;100.00;93305.38;2098461;28;20032;-91
2021/08/15 01:34:00;;;;;;;12.38;9.93;;;;;;;15.23;100.00;93304.94;2098511;28;20021;-93
2021/08/15 01:35:02;;;;;;;12.00;9.77;;;;;;;15.18;100.00;93308.94;2106941;28;20373;-92
2021/08/15 01:36:04;;;;;;;10.73;9.23;;;;;;;15.21;100.00;93304.63;2107151;28;20024;-92
2021/08/15 01:37:07;;;;;;;11.50;9.75;;;;;;;15.22;100.00;93306.13;2107039;27;20028;-92
2021/08/15 01:38:08;;;;;;;12.05;9.80;;;;;;;15.23;100.00;93308.41;2107003;28;20491;-91
2021/08/15 01:39:09;;;;;;;12.30;9.60;;;;;;;15.21;100.00;93301.94;2098656;28;20020;-91
2021/08/15 01:40:10;;;;;;;10.68;9.48;;;;;;;15.15;100.00;93304.47;2097379;28;20203;-91
2021/08/15 01:41:11;;;;;;;11.38;9.43;;;;;;;15.17;100.00;93309.41;2103857;28;20036;-91
2021/08/15 01:42:12;;;;;;;11.27;9.23;;;;;;;15.09;100.00;93309.66;2115147;28;20114;-92
2021/08/15 01:43:13;;;;;;;10.85;9.75;;;;;;;15.14;100.00;93302.94;2115118;28;20511;-91
2021/08/15 01:44:13;;;;;;;11.45;10.02;;;;;;;15.14;100.00;93307.56;2106712;28;20123;-91
2021/08/15 01:45:14;;;;;;;10.18;8.98;;;;;;;15.09;100.00;93301.56;2098419;28;20021;-90
2021/08/15 01:46:17;;;;;;;11.30;10.18;;;;;;;15.06;100.00;93312.50;2098372;28;20115;-90
2021/08/15 01:47:18;;;;;;;11.98;9.23;;;;;;;15.08;100.00;93304.72;2099057;28;20033;-91
2021/08/15 01:48:19;;;;;;;11.63;9.93;;;;;;;15.02;100.00;93309.91;2091866;28;20112;-92
2021/08/15 01:49:20;;;;;;;12.30;10.05;;;;;;;15.04;100.00;93309.47;2095266;28;20035;-90
2021/08/15 01:50:21;;;;;;;13.45;10.10;;;;;;;15.06;100.00;93307.09;2098448;28;20412;-92
2021/08/15 01:51:22;;;;;;;12.23;10.73;;;;;;;15.05;100.00;93306.31;2099653;28;20054;-91
2021/08/15 01:52:23;;;;;;;11.40;10.02;;;;;;;15.10;100.00;93305.00;2105625;28;20028;-92
2021/08/15 01:53:24;;;;;;;10.25;9.20;;;;;;;15.09;100.00;93298.88;2098326;28;20107;-91
2021/08/15 01:54:25;;;;;;;10.95;9.90;;;;;;;15.06;100.00;93307.84;2106711;28;20031;-92
2021/08/15 01:55:26;;;;;;;12.60;9.13;;;;;;;15.06;100.00;93299.03;2106633;28;20441;-91
2021/08/15 01:56:27;;;;;;;13.68;9.70;;;;;;;15.00;100.00;93303.47;2098399;28;20111;-92
2021/08/15 01:57:28;;;;;;;11.68;10.38;;;;;;;15.05;100.00;93300.94;2098179;28;20023;-93
2021/08/15 01:58:29;;;;;;;13.15;9.38;;;;;;;15.05;100.00;93303.63;2098003;28;20021;-91
2021/08/15 01:59:30;;;;;;;11.00;9.90;;;;;;;15.01;100.00;93303.03;2098442;28;20028;-90
2021/08/15 02:00:31;;;;;;;11.15;10.05;;;;;;;15.02;100.00;93301.84;2090161;28;20028;-91
2021/08/15 02:01:32;;;;;;;11.07;10.07;;;;;;;15.03;100.00;93306.03;2090118;28;20029;-92
2021/08/15 02:02:33;;;;;;;13.75;10.05;;;;;;;14.99;100.00;93301.97;2090371;28;20169;-92
2021/08/15 02:03:37;;;;;;;11.40;10.27;;;;;;;14.98;100.00;93303.91;2090128;28;20410;-91
2021/08/15 02:04:38;;;;;;;12.13;9.90;;;;;;;14.91;100.00;93301.47;2091325;28;20111;-90
2021/08/15 02:06:51;;;;;;;;;;;;;;;14.94;100.00;93308.66;2148366;27;20121;-85
2021/08/15 02:07:55;;;;;;;11.90;9.55;;;;;;;14.92;100.00;93304.91;2125817;27;20192;-86
2021/08/15 02:08:56;;;;;;;12.30;9.55;;;;;;;14.88;100.00;93301.56;2121298;27;20023;-86
2021/08/15 02:09:56;;;;;;;10.85;9.82;;;;;;;14.91;100.00;93300.72;2121398;28;20023;-86
2021/08/15 02:10:57;;;;;;;10.98;9.73;;;;;;;14.90;100.00;93304.59;2108482;28;20019;-87
2021/08/15 02:11:58;;;;;;;13.85;10.07;;;;;;;14.87;100.00;93292.75;2108630;28;20024;-87
2021/08/15 02:13:01;;;;;;;12.15;9.75;;;;;;;14.81;100.00;93292.56;2108301;27;20028;-89
2021/08/15 02:14:02;;;;;;;13.77;10.02;;;;;;;14.82;100.00;93298.69;2108657;27;20016;-87
2021/08/15 02:15:04;;;;;;;11.50;10.15;;;;;;;14.79;100.00;93297.66;2108496;28;20437;-83
2021/08/15 02:16:04;;;;;;;11.40;10.25;;;;;;;14.79;100.00;93299.56;2104967;27;20028;-87
2021/08/15 02:17:05;;;;;;;12.70;10.02;;;;;;;14.82;100.00;93296.00;2116909;27;20020;-86
2021/08/15 02:18:06;;;;;;;13.27;9.15;;;;;;;14.79;100.00;93289.59;2120290;28;20881;-87
2021/08/15 02:19:07;;;;;;;11.45;10.13;;;;;;;14.79;100.00;93294.19;2108542;28;20035;-83
2021/08/15 02:20:09;;;;;;;11.20;10.00;;;;;;;14.81;100.00;93297.22;2103137;28;20066;-84
2021/08/15 02:21:11;;;;;;;13.02;10.57;;;;;;;14.78;100.00;93296.13;2104595;28;20035;-85
2021/08/15 02:22:12;;;;;;;10.90;9.80;;;;;;;14.75;100.00;93296.25;2113088;28;20106;-83
2021/08/15 02:23:12;;;;;;;11.45;10.25;;;;;;;14.70;100.00;93291.44;2122436;27;20522;-85
2021/08/15 02:24:13;;;;;;;10.98;9.88;;;;;;;14.74;100.00;93294.75;2114254;28;20023;-83
2021/08/15 02:25:16;;;;;;;10.98;9.98;;;;;;;14.74;100.00;93294.75;2116686;28;20464;-85
2021/08/15 02:26:17;;;;;;;11.70;10.50;;;;;;;14.72;100.00;93289.81;2116251;28;20031;-87
2021/08/15 02:27:18;;;;;;;11.25;8.98;;;;;;;14.68;100.00;93288.44;2108327;28;20511;-85
2021/08/15 02:28:19;;;;;;;13.93;9.82;;;;;;;14.70;100.00;93286.06;2108132;28;20036;-87
2021/08/15 02:29:20;;;;;;;12.32;9.45;;;;;;;14.74;100.00;93284.00;2106708;28;20430;-85
2021/08/15 02:30:23;;;;;;;13.32;10.70;;;;;;;14.69;100.00;93285.31;2109619;28;20093;-85
2021/08/15 02:31:24;;;;;;;11.10;9.88;;;;;;;14.63;100.00;93280.94;2112812;28;20046;-85
2021/08/15 02:32:25;;;;;;;11.95;9.73;;;;;;;14.67;100.00;93278.88;2108530;28;20477;-85
2021/08/15 02:33:26;;;;;;;13.18;10.15;;;;;;;14.69;100.00;93281.88;2117954;28;20020;-84
2021/08/15 02:34:28;;;;;;;10.98;9.82;;;;;;;14.72;100.00;93281.00;2112604;28;20023;-84
2021/08/15 02:35:32;;;;;;;11.00;9.88;;;;;;;14.71;100.00;93280.25;2109269;28;20082;-87
2021/08/15 02:36:33;;;;;;;12.82;10.40;;;;;;;14.64;100.00;93288.56;2112673;27;20042;-84
2021/08/15 02:37:35;;;;;;;11.82;10.05;;;;;;;14.60;100.00;93277.91;2108372;28;20024;-85
2021/08/15 02:38:36;;;;;;;11.18;10.07;;;;;;;14.59;100.00;93279.09;2112721;28;20023;-84
2021/08/15 02:39:36;;;;;;;10.80;9.57;;;;;;;14.60;100.00;93279.84;2096162;28;20024;-83
2021/08/15 02:40:37;;;;;;;11.02;9.90;;;;;;;14.58;100.00;93280.31;2103376;28;20025;-84
2021/08/15 02:41:38;;;;;;;11.57;9.40;;;;;;;14.57;100.00;93276.13;2108227;28;20537;-86
2021/08/15 02:42:42;;;;;;;10.77;9.15;;;;;;;14.55;100.00;93277.72;2108399;28;20054;-88
2021/08/15 02:43:43;;;;;;;13.68;10.30;;;;;;;14.54;100.00;93278.94;2116796;28;20121;-87
2021/08/15 02:44:44;;;;;;;11.57;10.38;;;;;;;14.53;100.00;93280.09;2108176;28;20563;-86
2021/08/15 02:45:45;;;;;;;10.60;9.45;;;;;;;14.56;100.00;93273.84;2104307;28;20075;-86
2021/08/15 02:46:46;;;;;;;12.07;9.98;;;;;;;14.58;100.00;93274.19;2105848;28;20028;-87
2021/08/15 02:47:47;;;;;;;12.40;10.20;;;;;;;14.57;100.00;93278.03;2091424;28;20021;-86
2021/08/15 02:48:48;;;;;;;10.93;9.50;;;;;;;14.59;100.00;93281.06;2099501;28;20025;-85
2021/08/15 02:49:49;;;;;;;11.82;10.43;;;;;;;14.57;100.00;93267.28;2097646;28;20067;-86
2021/08/15 02:50:50;;;;;;;11.55;10.40;;;;;;;14.51;100.00;93277.09;2099801;28;20040;-86
2021/08/15 02:51:51;;;;;;;11.45;10.25;;;;;;;14.51;100.00;93269.78;2108057;28;20028;-85
2021/08/15 02:52:52;;;;;;;13.05;9.93;;;;;;;14.54;100.00;93273.53;2099818;28;20028;-85
2021/08/15 02:53:54;;;;;;;12.57;9.90;;;;;;;14.58;100.00;93266.09;2103531;28;20058;-87
2021/08/15 02:54:55;;;;;;;12.52;10.60;;;;;;;14.58;100.00;93266.84;2099947;28;20101;-85
2021/08/15 02:55:56;;;;;;;13.40;9.98;;;;;;;14.59;100.00;93265.66;2108221;28;20468;-85
2021/08/15 02:56:57;;;;;;;11.27;10.18;;;;;;;14.51;100.00;93260.97;2108015;28;20023;-87
2021/08/15 02:57:58;;;;;;;11.77;10.55;;;;;;;14.53;100.00;93269.34;2108926;28;20401;-84
2021/08/15 02:58:59;;;;;;;10.90;9.90;;;;;;;14.54;100.00;93258.16;2107771;28;20028;-84
2021/08/15 02:59:59;;;;;;;11.65;10.00;;;;;;;14.52;100.00;93262.47;2095411;28;20420;-83
2021/08/15 03:01:00;;;;;;;10.93;9.82;;;;;;;14.47;100.00;93261.03;2112596;28;20062;-85
2021/08/15 03:02:01;;;;;;;12.00;10.10;;;;;;;14.42;100.00;93263.56;2104046;28;20068;-85
2021/08/15 03:03:03;;;;;;;10.65;9.50;;;;;;;14.42;100.00;93261.59;2117363;28;20030;-84
2021/08/15 03:04:04;;;;;;;10.57;9.57;;;;;;;14.43;100.00;93265.03;2104070;28;20031;-87
2021/08/15 03:05:06;;;;;;;11.73;10.23;;;;;;;14.42;100.00;93269.69;2112120;28;20020;-84
2021/08/15 03:06:07;;;;;;;12.07;9.80;;;;;;;14.44;100.00;93259.22;2108799;28;20050;-85
2021/08/15 03:07:08;;;;;;;13.05;10.20;;;;;;;14.40;100.00;93260.53;2104659;28;20013;-87
2021/08/15 03:08:09;;;;;;;10.88;9.77;;;;;;;14.42;100.00;93260.88;2105918;27;20075;-83
2021/08/15 03:09:10;;;;;;;10.75;9.75;;;;;;;14.38;100.00;93252.91;2108795;28;20058;-83
2021/08/15 03:10:11;;;;;;;12.23;9.82;;;;;;;14.38;100.00;93260.22;2100663;28;20047;-84
2021/08/15 03:11:12;;;;;;;10.20;9.13;;;;;;;14.40;100.00;93255.16;2099890;28;20507;-85
2021/08/15 03:12:13;;;;;;;11.77;10.38;;;;;;;14.39;100.00;93250.97;2099889;28;20052;-84
2021/08/15 03:13:14;;;;;;;12.30;10.98;;;;;;;14.36;100.00;93253.34;2120609;28;20552;-85
2021/08/15 03:14:15;;;;;;;12.88;10.25;;;;;;;14.34;100.00;93254.97;2101232;28;20036;-83
2021/08/15 03:15:16;;;;;;;11.13;9.88;;;;;;;14.31;100.00;93250.44;2099625;28;20061;-85
2021/08/15 03:16:17;;;;;;;14.32;9.82;;;;;;;14.28;100.00;93244.03;2116475;27;20020;-86
2021/08/15 03:17:18;;;;;;;12.52;10.15;;;;;;;14.23;100.00;93251.91;2122529;27;20031;-86
2021/08/15 03:18:19;;;;;;;11.20;9.90;;;;;;;14.22;100.00;93245.75;2104251;28;20020;-87
2021/08/15 03:19:20;;;;;;;11.02;9.38;;;;;;;14.22;100.00;93253.81;2094022;28;20067;-85
2021/08/15 03:20:21;;;;;;;12.52;9.80;;;;;;;14.19;100.00;93241.25;2094079;28;20496;-87
2021/08/15 03:21:24;;;;;;;10.23;9.32;;;;;;;14.19;100.00;93246.63;2093918;28;20029;-83
2021/08/15 03:22:25;;;;;;;15.25;10.38;;;;;;;14.23;100.00;93247.28;2099551;28;20024;-84
2021/08/15 03:23:26;;;;;;;13.55;9.95;;;;;;;14.23;100.00;93249.97;2110704;28;20026;-87
2021/08/15 03:24:27;;;;;;;11.20;10.10;;;;;;;14.24;100.00;93256.09;2101968;28;20035;-85
2021/08/15 03:25:28;;;;;;;12.63;10.07;;;;;;;14.21;100.00;93246.19;2102488;28;20470;-87
2021/08/15 03:26:29;;;;;;;11.70;9.65;;;;;;;14.19;100.00;93235.13;2102653;28;20031;-84
2021/08/15 03:27:30;;;;;;;12.90;9.80;;;;;;;14.22;100.00;93245.00;2102053;28;20059;-83
2021/08/15 03:28:31;;;;;;;14.57;10.52;;;;;;;14.22;100.00;93247.69;2106127;28;20073;-84
2021/08/15 03:29:32;;;;;;;9.93;9.02;;;;;;;14.22;100.00;93253.06;2101991;28;20079;-85
2021/08/15 03:30:34;;;;;;;11.43;9.45;;;;;;;14.20;100.00;93239.31;2098464;28;20047;-84
2021/08/15 03:31:35;;;;;;;12.23;9.93;;;;;;;14.18;100.00;93239.00;2119196;27;20427;-83
2021/08/15 03:32:36;;;;;;;11.50;9.70;;;;;;;14.18;100.00;93247.06;2106790;28;20023;-83
2021/08/15 03:33:36;;;;;;;11.93;9.98;;;;;;;14.14;100.00;93241.06;2091886;28;20024;-86
2021/08/15 03:34:37;;;;;;;11.25;9.70;;;;;;;14.15;100.00;93243.31;2098936;28;20028;-84
2021/08/15 03:35:38;;;;;;;14.48;10.60;;;;;;;14.17;100.00;93243.63;2102213;28;20020;-86
2021/08/15 03:36:40;;;;;;;10.82;9.73;;;;;;;14.18;100.00;93239.00;2106341;28;20024;-83
2021/08/15 03:37:40;;;;;;;11.50;10.40;;;;;;;14.17;100.00;93242.88;2097286;28;20020;-85
2021/08/15 03:38:41;;;;;;;13.20;9.77;;;;;;;14.07;100.00;93242.03;2089744;28;20055;-85
2021/08/15 03:39:44;;;;;;;10.57;9.68;;;;;;;14.11;100.00;93238.06;2098878;28;20020;-87
2021/08/15 03:40:45;;;;;;;13.10;9.60;;;;;;;14.10;100.00;93236.56;2092099;28;20119;-86
2021/08/15 03:41:46;;;;;;;12.45;10.55;;;;;;;14.05;100.00;93239.06;2094117;28;20523;-86
2021/08/15 03:42:47;;;;;;;15.65;10.73;;;;;;;14.07;100.00;93244.72;2094417;28;20032;-84
2021/08/15 03:43:48;;;;;;;10.27;9.20;;;;;;;14.10;100.00;93241.19;2117309;27;20019;-84
2021/08/15 03:44:49;;;;;;;11.00;10.00;;;;;;;14.09;100.00;93237.75;2099930;28;20028;-84
2021/08/15 03:45:50;;;;;;;14.35;9.50;;;;;;;14.10;100.00;93241.94;2093677;28;20025;-83
2021/08/15 03:46:51;;;;;;;11.90;9.63;;;;;;;14.06;100.00;93237.84;2102007;28;20023;-86
2021/08/15 03:47:52;;;;;;;10.80;9.65;;;;;;;14.02;100.00;93237.97;2102027;28;20694;-84
2021/08/15 03:48:53;;;;;;;10.68;9.63;;;;;;;14.08;100.00;93241.59;2110332;28;20085;-87
2021/08/15 03:49:54;;;;;;;13.73;10.32;;;;;;;14.06;100.00;93241.28;2101924;28;20025;-86
2021/08/15 03:50:55;;;;;;;11.30;9.75;;;;;;;14.05;100.00;93233.69;2093270;28;20434;-87
2021/08/15 03:51:56;;;;;;;11.05;10.00;;;;;;;14.07;100.00;93237.41;2106349;28;20028;-85
2021/08/15 03:52:57;;;;;;;10.68;9.68;;;;;;;14.03;100.00;93234.09;2102100;28;20355;-86
2021/08/15 03:53:58;;;;;;;9.85;8.88;;;;;;;14.03;100.00;93241.41;2101339;28;20050;-83
2021/08/15 03:54:59;;;;;;;10.73;9.35;;;;;;;14.03;100.00;93236.03;2093576;28;20510;-86
2021/08/15 03:56:00;;;;;;;12.82;10.15;;;;;;;14.07;100.00;93229.34;2110375;28;20028;-84
2021/08/15 03:57:01;;;;;;;9.18;8.32;;;;;;;14.07;100.00;93231.28;2106063;28;20083;-85
2021/08/15 03:58:02;;;;;;;8.90;8.10;;;;;;;14.06;100.00;93233.22;2089684;28;20037;-83
2021/08/15 03:59:03;;;;;;;11.18;8.52;;;;;;;14.03;100.00;93226.03;2106727;28;20023;-83
2021/08/15 04:00:05;;;;;;;9.48;7.80;;;;;;;14.03;100.00;93226.03;2101847;28;20036;-84
2021/08/15 04:01:06;;;;;;;13.77;7.50;;;;;;;14.04;100.00;93230.22;2093496;28;20036;-83
2021/08/15 04:02:07;;;;;;;9.02;8.07;;;;;;;14.07;100.00;93236.66;2089118;28;20482;-88
2021/08/15 04:03:09;;;;;;;7.90;7.05;;;;;;;14.04;100.00;93235.59;2101445;28;20020;-85
2021/08/15 04:04:10;;;;;;;12.18;7.38;;;;;;;14.05;100.00;93233.69;2110322;28;20078;-86
2021/08/15 04:05:12;;;;;;;8.70;7.07;;;;;;;14.04;100.00;93240.22;2093477;28;20470;-87
2021/08/15 04:06:20;;;;;;;8.50;7.70;;;;;;;14.03;100.00;93234.09;2100654;28;20079;-86
2021/08/15 04:07:21;;;;;;;9.85;7.00;;;;;;;14.03;100.00;93239.47;2101113;28;20039;-88
2021/08/15 04:08:23;;;;;;;8.98;6.85;;;;;;;14.03;100.00;93241.41;2092494;28;20556;-86
2021/08/15 04:09:24;;;;;;;7.22;6.40;;;;;;;13.97;100.00;93238.53;2106402;28;20042;-87
2021/08/15 04:10:25;;;;;;;7.28;6.57;;;;;;;13.99;100.00;93230.78;2093558;28;20109;-90
2021/08/15 04:11:26;;;;;;;8.00;7.22;;;;;;;13.92;100.00;93228.34;2101964;28;20103;-84
2021/08/15 04:12:27;;;;;;;8.30;6.53;;;;;;;13.88;100.00;93238.44;2101824;28;20024;-85
2021/08/15 04:13:28;;;;;;;8.63;6.43;;;;;;;13.92;100.00;93232.97;2101373;28;20028;-86
2021/08/15 04:14:29;;;;;;;8.93;6.90;;;;;;;13.93;100.00;93231.78;2110655;28;20066;-86
2021/08/15 04:15:30;;;;;;;7.25;6.55;;;;;;;13.92;100.00;93231.03;2109885;28;20127;-88
2021/08/15 04:16:31;;;;;;;9.68;7.45;;;;;;;13.95;100.00;93237.44;2089425;28;20063;-88
2021/08/15 04:17:32;;;;;;;7.30;6.70;;;;;;;13.98;100.00;93236.59;2101713;28;20020;-85
2021/08/15 04:18:33;;;;;;;7.63;6.80;;;;;;;13.96;100.00;93239.72;2097807;28;20428;-84
2021/08/15 04:19:33;;;;;;;7.32;6.63;;;;;;;13.92;100.00;93236.41;2093147;28;20048;-85
2021/08/15 04:20:34;;;;;;;6.85;6.25;;;;;;;13.94;100.00;93235.94;2093202;28;20103;-84
2021/08/15 04:21:35;;;;;;;9.10;7.40;;;;;;;13.92;100.00;93241.03;2101452;28;20508;-87
2021/08/15 04:22:36;;;;;;;9.43;8.07;;;;;;;13.93;100.00;93237.13;2101676;28;20035;-85
2021/08/15 04:23:37;;;;;;;8.70;7.85;;;;;;;13.97;100.00;93237.78;2099102;28;20373;-84
2021/08/15 04:24:39;;;;;;;8.43;7.60;;;;;;;13.99;100.00;93235.41;2101235;28;20031;-86
2021/08/15 04:25:40;;;;;;;8.73;7.95;;;;;;;13.95;100.00;93240.13;2094832;28;20028;-85
2021/08/15 04:26:44;;;;;;;9.20;8.25;;;;;;;13.98;100.00;93239.28;2100729;28;20025;-84
2021/08/15 04:27:44;;;;;;;9.30;8.25;;;;;;;13.99;100.00;93241.53;2112515;27;20027;-87
2021/08/15 04:28:45;;;;;;;9.23;8.00;;;;;;;14.00;100.00;93231.53;2108252;28;20024;-85
2021/08/15 04:29:46;;;;;;;9.77;8.88;;;;;;;13.90;100.00;93235.31;2102684;28;20028;-83
2021/08/15 04:30:47;;;;;;;10.95;8.73;;;;;;;13.92;100.00;93232.97;2101231;28;20048;-86
2021/08/15 04:31:48;;;;;;;12.10;8.90;;;;;;;13.96;100.00;93233.56;2093455;28;20017;-84
2021/08/15 04:32:49;;;;;;;10.02;9.13;;;;;;;13.91;100.00;93232.19;2095230;28;20036;-84
2021/08/15 04:33:50;;;;;;;15.63;9.65;;;;;;;13.91;100.00;93229.50;2110675;28;20032;-84
2021/08/15 04:34:51;;;;;;;12.63;8.98;;;;;;;13.94;100.00;93236.69;2109931;28;20075;-86
2021/08/15 04:35:52;;;;;;;10.60;9.60;;;;;;;13.97;100.00;93227.78;2102931;28;20020;-86
2021/08/15 04:36:53;;;;;;;11.50;9.45;;;;;;;13.86;100.00;93227.38;2101579;28;20024;-85
2021/08/15 04:37:55;;;;;;;12.00;9.55;;;;;;;13.94;100.00;93231.31;2098095;28;20021;-83
2021/08/15 04:38:55;;;;;;;12.45;9.43;;;;;;;13.93;100.00;93237.88;2109157;28;20030;-83
2021/08/15 04:39:56;;;;;;;12.27;9.98;;;;;;;13.95;100.00;93229.38;2104025;28;20404;-84
2021/08/15 04:40:57;;;;;;;10.65;9.43;;;;;;;13.97;100.00;93230.47;2110784;28;20031;-85
2021/08/15 04:41:58;;;;;;;11.85;8.77;;;;;;;13.95;100.00;93229.38;2100754;28;20057;-83
2021/08/15 04:42:59;;;;;;;9.85;8.95;;;;;;;13.97;100.00;93225.09;2109577;28;20028;-88